Time;durP1;ratioP1;P1;durP2;ratioP2;P2;SDS_P1;SDS_P2;PMS_P1;PMS_P2;Temp;Humidity;BMP_temperature;BMP_pressure;BME280_temperature;BME280_humidity;BME280_pressure;Samples;Min_cycle;Max_cycle;Signal;HPM_P1;HPM_P2
2022/08/11 00:01:54;;;;;;;2.60;2.05;;;27.70;53.00;;;;;;5028911;28;20046;-74
2022/08/11 00:04:25;;;;;;;2.20;1.85;;;27.70;53.00;;;;;;5028953;28;20092;-74
2022/08/11 00:06:52;;;;;;;3.67;3.28;;;27.60;53.00;;;;;;5028818;28;20524;-74
2022/08/11 00:09:21;;;;;;;3.38;2.70;;;27.60;53.00;;;;;;5028952;28;20045;-74
2022/08/11 00:11:53;;;;;;;3.30;1.88;;;27.70;53.00;;;;;;5029006;28;20754;-74
2022/08/11 00:14:25;;;;;;;2.45;2.08;;;27.50;53.00;;;;;;5028921;28;20064;-74
2022/08/11 00:17:25;;;;;;;2.47;2.28;;;27.60;53.30;;;;;;5028936;28;20056;-74
2022/08/11 00:19:58;;;;;;;2.38;2.17;;;27.60;53.30;;;;;;4970022;28;20464;-74
2022/08/11 00:22:27;;;;;;;4.78;2.70;;;27.60;53.20;;;;;;4970113;28;20500;-74
2022/08/11 00:24:53;;;;;;;2.33;2.08;;;27.60;53.30;;;;;;4955531;28;20054;-74
2022/08/11 00:27:19;;;;;;;2.25;2.03;;;27.60;53.30;;;;;;4973562;28;20039;-74
2022/08/11 00:29:53;;;;;;;2.03;1.83;;;27.60;53.30;;;;;;4981823;28;20097;-74
2022/08/11 00:32:19;;;;;;;3.53;3.22;;;27.60;53.30;;;;;;4992999;28;20381;-72
2022/08/11 00:34:46;;;;;;;4.45;2.65;;;27.70;53.20;;;;;;4993490;28;20035;-74
2022/08/11 00:37:20;;;;;;;2.47;2.28;;;27.60;53.30;;;;;;4993219;28;20153;-74
2022/08/11 00:39:50;;;;;;;2.90;2.55;;;27.70;53.20;;;;;;4992929;28;20044;-74
2022/08/11 00:42:40;;;;;;;3.65;2.85;;;27.60;53.20;;;;;;4992791;28;20133;-74
2022/08/11 00:45:06;;;;;;;3.00;2.75;;;27.80;53.20;;;;;;4976721;28;20046;-74
2022/08/11 00:47:32;;;;;;;4.30;2.70;;;27.70;53.20;;;;;;4993230;28;20446;-74
2022/08/11 00:50:07;;;;;;;2.58;2.38;;;27.80;53.10;;;;;;4992899;28;20045;-74
2022/08/11 00:52:52;;;;;;;2.53;2.33;;;27.70;53.10;;;;;;4976701;28;20046;-75
2022/08/11 00:55:43;;;;;;;2.60;2.40;;;27.70;53.00;;;;;;5004475;28;20045;-74
2022/08/11 00:58:51;;;;;;;2.78;2.35;;;27.70;53.00;;;;;;5074720;28;20082;-74
2022/08/11 01:01:19;;;;;;;2.58;2.22;;;27.70;53.10;;;;;;5073397;28;20090;-74
2022/08/11 01:04:33;;;;;;;4.82;2.20;;;27.60;53.00;;;;;;5073096;28;20098;-74
2022/08/11 01:07:02;;;;;;;2.80;2.50;;;27.50;53.10;;;;;;5015268;28;20498;-74
2022/08/11 01:09:31;;;;;;;3.33;2.40;;;27.70;53.00;;;;;;5032044;28;20042;-74
2022/08/11 01:12:34;;;;;;;4.38;2.47;;;27.60;53.00;;;;;;5031685;28;20050;-74
2022/08/11 01:15:27;;;;;;;3.10;2.90;;;27.60;53.00;;;;;;5031768;28;20102;-74
2022/08/11 01:18:20;;;;;;;2.72;2.53;;;27.60;53.10;;;;;;5031807;28;20068;-74
2022/08/11 01:21:18;;;;;;;2.90;2.55;;;27.50;53.20;;;;;;5015367;28;20096;-74
2022/08/11 01:24:35;;;;;;;2.53;2.33;;;27.50;53.20;;;;;;4972532;28;20059;-74
2022/08/11 01:27:23;;;;;;;4.10;3.10;;;27.40;53.30;;;;;;4944328;28;20161;-73
2022/08/11 01:29:58;;;;;;;5.82;2.63;;;27.60;53.40;;;;;;4953538;29;20484;-74
2022/08/11 01:33:18;;;;;;;2.85;2.25;;;27.40;53.30;;;;;;4953494;29;20105;-74
2022/08/11 01:36:19;;;;;;;5.55;2.42;;;27.40;53.30;;;;;;4933176;29;20616;-74
2022/08/11 01:39:11;;;;;;;6.75;2.70;;;27.40;53.30;;;;;;4934218;29;20055;-74
2022/08/11 01:45:25;;;;;;;2.72;2.40;;;27.40;53.60;;;;;;4914698;29;20101;-74
2022/08/11 01:48:19;;;;;;;2.55;2.35;;;27.40;53.60;;;;;;4914888;29;20072;-74
2022/08/11 01:50:53;;;;;;;4.78;2.75;;;27.40;53.60;;;;;;4914761;29;20102;-74
2022/08/11 01:53:34;;;;;;;3.05;2.45;;;27.40;53.60;;;;;;4914760;29;20191;-74
2022/08/11 01:56:18;;;;;;;5.50;2.55;;;27.50;53.60;;;;;;4914705;29;20094;-74
2022/08/11 01:59:03;;;;;;;3.45;2.30;;;27.50;53.60;;;;;;4914808;29;20107;-74
2022/08/11 02:01:57;;;;;;;5.40;2.33;;;27.50;53.60;;;;;;4952758;29;20043;-74
2022/08/11 02:04:38;;;;;;;5.18;2.35;;;27.50;53.60;;;;;;4952364;29;20102;-74
2022/08/11 02:07:31;;;;;;;2.97;2.53;;;27.60;53.60;;;;;;4952657;29;20043;-74
2022/08/11 02:13:23;;;;;;;2.53;2.25;;;27.70;53.60;;;;;;4991467;28;20046;-74
2022/08/11 02:16:04;;;;;;;3.83;2.30;;;27.70;53.60;;;;;;4991226;28;20038;-74
2022/08/11 02:24:29;;;;;;;7.22;2.47;;;27.70;53.60;;;;;;5054636;28;20432;-75
2022/08/11 02:27:13;;;;;;;3.03;2.03;;;27.70;53.60;;;;;;5054191;28;20532;-74
2022/08/11 02:30:05;;;;;;;2.05;1.85;;;27.80;53.60;;;;;;5052780;28;20077;-74
2022/08/11 02:35:41;;;;;;;3.38;2.10;;;27.70;53.60;;;;;;5052533;28;20033;-74
2022/08/11 02:38:31;;;;;;;3.80;2.33;;;27.90;53.60;;;;;;5051467;28;20040;-74
2022/08/11 02:42:21;;;;;;;2.90;2.38;;;27.80;53.50;;;;;;5052501;28;20049;-74
2022/08/11 02:44:10;;;;;;;2.55;2.35;;;27.80;53.50;;;;;;5052711;28;20391;-74
2022/08/11 02:46:49;;;;;;;4.45;2.20;;;27.80;53.50;;;;;;5052447;28;20029;-74
2022/08/11 02:52:29;;;;;;;3.22;2.05;;;27.80;53.50;;;;;;5052603;28;20230;-74
2022/08/11 02:55:01;;;;;;;2.95;1.95;;;27.90;53.40;;;;;;5052263;28;20052;-74
2022/08/11 02:57:33;;;;;;;2.17;1.80;;;27.70;53.40;;;;;;5052113;28;20108;-74
2022/08/11 03:00:06;;;;;;;;;;;27.80;53.40;;;;;;5051190;28;20033;-74
2022/08/11 03:02:40;;;;;;;4.50;2.65;;;27.70;53.40;;;;;;5029533;28;19920;-74
2022/08/11 03:05:13;;;;;;;2.28;1.90;;;27.90;53.40;;;;;;5029641;28;20037;-74
2022/08/11 03:07:39;;;;;;;5.60;2.20;;;27.70;53.40;;;;;;5049494;28;20045;-74
2022/08/11 03:10:29;;;;;;;2.58;2.35;;;27.80;53.40;;;;;;5049427;28;20029;-74
2022/08/11 03:19:29;;;;;;;3.10;1.83;;;27.90;53.40;;;;;;5049452;28;20032;-74
2022/08/11 03:22:11;;;;;;;5.30;2.60;;;27.70;53.30;;;;;;5048317;28;20555;-74
2022/08/11 03:24:56;;;;;;;2.40;2.03;;;27.80;53.30;;;;;;5048878;28;20064;-74
2022/08/11 03:27:45;;;;;;;3.60;2.38;;;27.70;53.30;;;;;;5049241;28;20060;-74
2022/08/11 03:30:38;;;;;;;2.75;2.20;;;27.80;53.30;;;;;;5049290;28;20112;-74
2022/08/11 03:36:52;;;;;;;5.97;2.00;;;27.80;53.20;;;;;;5048844;28;20045;-74
2022/08/11 03:39:40;;;;;;;2.60;2.40;;;27.80;53.30;;;;;;5052783;28;20532;-75
2022/08/11 03:42:09;;;;;;;2.83;2.08;;;27.90;53.20;;;;;;5068393;28;20044;-74
2022/08/11 03:45:12;;;;;;;2.13;1.90;;;27.70;53.10;;;;;;5064421;28;20436;-73
2022/08/11 03:48:08;;;;;;;3.85;2.05;;;27.70;53.30;;;;;;5051604;28;20385;-83
2022/08/11 03:50:43;;;;;;;2.97;2.25;;;27.80;53.20;;;;;;5051655;28;20482;-85
2022/08/11 03:53:42;;;;;;;3.13;2.15;;;27.70;52.30;;;;;;5051884;28;20067;-83
2022/08/11 03:56:38;;;;;;;2.80;1.92;;;27.70;51.50;;;;;;5051564;28;20068;-84
2022/08/11 03:59:10;;;;;;;3.30;2.15;;;27.80;50.70;;;;;;5052376;28;20029;-83
2022/08/11 04:02:04;;;;;;;3.50;2.20;;;27.60;50.20;;;;;;5055925;28;20427;-83
2022/08/11 04:04:54;;;;;;;3.63;2.03;;;27.50;48.00;;;;;;5055615;28;20067;-81
2022/08/11 04:07:58;;;;;;;2.83;2.58;;;27.60;48.70;;;;;;5054259;28;20037;-79
2022/08/11 04:11:01;;;;;;;3.25;1.92;;;27.50;50.90;;;;;;5055528;28;20044;-76
2022/08/11 04:13:41;;;;;;;3.13;2.50;;;27.90;53.00;;;;;;5054730;28;20377;-78
2022/08/11 04:16:31;;;;;;;3.50;2.25;;;28.20;54.30;;;;;;5055501;28;20172;-81
2022/08/11 04:19:12;;;;;;;3.85;2.22;;;28.30;57.00;;;;;;5060441;28;20108;-83
2022/08/11 04:22:11;;;;;;;3.63;2.30;;;28.30;52.20;;;;;;5061340;28;20121;-85
2022/08/11 04:24:55;;;;;;;3.13;2.28;;;28.10;51.20;;;;;;5055395;28;20033;-81
2022/08/11 04:27:38;;;;;;;4.18;2.70;;;28.20;50.90;;;;;;5059230;28;20590;-84
2022/08/11 04:30:26;;;;;;;3.80;2.13;;;28.00;50.80;;;;;;5055370;28;20041;-82
2022/08/11 04:32:58;;;;;;;4.22;2.20;;;28.00;50.90;;;;;;5055310;28;20025;-84
2022/08/11 04:35:42;;;;;;;3.65;2.35;;;27.90;50.50;;;;;;5054931;28;20099;-84
2022/08/11 04:38:18;;;;;;;4.70;2.22;;;28.00;51.20;;;;;;5054169;28;20044;-79
2022/08/11 04:41:09;;;;;;;2.53;2.17;;;27.90;50.80;;;;;;5054987;28;20044;-84
2022/08/11 04:43:56;;;;;;;2.40;2.20;;;27.90;50.70;;;;;;5053688;28;20179;-85
2022/08/11 04:46:24;;;;;;;3.22;1.98;;;27.80;50.60;;;;;;5054906;28;20031;-80
2022/08/11 05:01:42;;;;;;;4.10;1.45;;;27.40;47.30;;;;;;5011161;28;20132;-82
2022/08/11 05:05:29;;;;;;;1.15;1.05;;;27.30;49.30;;;;;;5009791;28;20049;-78
2022/08/11 05:07:30;;;;;;;1.40;1.27;;;27.50;49.60;;;;;;5009065;28;20045;-80
2022/08/11 05:09:59;;;;;;;1.10;1.10;;;27.60;48.50;;;;;;5011580;28;20084;-81
2022/08/11 05:12:31;;;;;;;2.35;1.92;;;27.50;49.00;;;;;;5010428;28;20160;-79
2022/08/11 05:35:44;;;;;;;3.25;1.60;;;27.40;50.40;;;;;;4995816;28;20052;-82
2022/08/11 05:58:01;;;;;;;2.38;1.85;;;27.00;50.30;;;;;;5054302;28;20039;-73
2022/08/11 06:00:27;;;;;;;2.58;2.35;;;27.10;50.30;;;;;;5047674;28;20466;-70
2022/08/11 06:03:00;;;;;;;3.13;2.28;;;27.00;51.00;;;;;;5034710;28;20068;-69
2022/08/11 06:05:33;;;;;;;;;;;27.10;50.60;;;;;;5057674;28;20063;-69
2022/08/11 06:07:59;;;;;;;5.13;2.20;;;27.10;50.00;;;;;;5050969;28;20456;-70
2022/08/11 06:10:35;;;;;;;2.90;2.25;;;27.10;49.50;;;;;;5049678;28;20068;-71
2022/08/11 06:13:03;;;;;;;2.80;2.60;;;27.10;49.40;;;;;;5050751;28;20052;-72
2022/08/11 06:15:42;;;;;;;2.17;2.00;;;27.10;49.40;;;;;;5048874;28;20056;-72
2022/08/11 06:18:10;;;;;;;3.33;1.92;;;27.30;49.20;;;;;;5042200;28;20045;-73
2022/08/11 06:20:50;;;;;;;3.88;2.70;;;27.20;49.10;;;;;;5046960;28;20037;-75
2022/08/11 06:23:22;;;;;;;2.38;1.98;;;27.30;49.10;;;;;;5044572;28;20044;-76
2022/08/11 06:25:52;;;;;;;3.63;2.22;;;27.20;48.90;;;;;;5046662;28;20056;-77
2022/08/11 06:28:29;;;;;;;4.57;2.78;;;27.20;49.60;;;;;;5048964;28;20604;-71
2022/08/11 06:30:56;;;;;;;3.13;2.80;;;27.30;49.50;;;;;;5049398;28;20068;-74
2022/08/11 06:33:46;;;;;;;5.60;2.72;;;27.10;49.30;;;;;;5065774;28;20029;-70
2022/08/11 06:36:39;;;;;;;2.65;2.45;;;27.20;49.40;;;;;;5055100;28;20060;-74
2022/08/11 06:39:11;;;;;;;5.55;2.35;;;27.10;49.90;;;;;;5046663;28;20108;-74
2022/08/11 06:41:58;;;;;;;7.28;2.53;;;27.20;51.80;;;;;;5074057;28;20067;-73
2022/08/11 06:44:43;;;;;;;3.63;2.53;;;27.10;50.70;;;;;;5068696;28;20058;-72
2022/08/11 06:47:12;;;;;;;3.57;2.77;;;27.10;50.80;;;;;;5075766;28;20492;-74
2022/08/11 06:52:36;;;;;;;1.85;1.75;;;27.20;50.90;;;;;;5073663;28;20062;-75
2022/08/11 07:00:26;;;;;;;2.47;2.08;;;27.10;50.80;;;;;;5068463;28;20082;-70
2022/08/11 07:00:48;;;;;;;2.15;1.95;;;27.20;50.90;;;;;;5062528;28;20056;-72
2022/08/11 07:03:19;;;;;;;4.68;2.45;;;27.30;50.90;;;;;;5027813;28;20049;-72
2022/08/11 07:05:45;;;;;;;3.28;2.10;;;27.20;51.00;;;;;;5028753;28;20084;-72
2022/08/11 07:17:22;;;;;;;2.28;1.65;;;27.30;50.50;;;;;;5024931;28;20037;-76
2022/08/11 07:31:44;;;;;;;2.85;1.85;;;27.10;51.80;;;;;;5024946;28;20095;-74
2022/08/11 07:34:29;;;;;;;3.97;2.05;;;27.10;51.20;;;;;;5024367;28;20041;-76
2022/08/11 07:36:57;;;;;;;0.98;0.98;;;26.90;50.70;;;;;;5010238;28;20584;-76
2022/08/11 07:39:30;;;;;;;1.70;1.60;;;26.90;50.80;;;;;;5020109;28;20030;-73
2022/08/11 07:41:58;;;;;;;2.13;1.70;;;26.90;50.70;;;;;;5050455;28;20041;-73
2022/08/11 07:44:28;;;;;;;1.40;1.30;;;27.00;51.10;;;;;;5057488;28;20495;-74
2022/08/11 07:52:33;;;;;;;3.00;2.70;;;27.10;50.70;;;;;;5044627;28;20033;-72
2022/08/11 07:55:21;;;;;;;2.58;2.00;;;27.10;50.60;;;;;;5045636;28;20108;-76
2022/08/11 08:17:51;;;;;;;1.60;1.50;;;26.80;50.50;;;;;;5030660;28;20449;-73
2022/08/11 08:20:27;;;;;;;2.55;2.33;;;26.90;50.60;;;;;;5037595;28;20045;-73
2022/08/11 08:22:57;;;;;;;2.17;1.98;;;26.80;50.40;;;;;;5017870;28;20091;-73
2022/08/11 08:25:25;;;;;;;1.60;1.42;;;27.00;51.20;;;;;;5029085;28;20061;-72
2022/08/11 08:27:52;;;;;;;7.72;2.67;;;26.80;50.40;;;;;;5028774;28;20049;-72
2022/08/11 08:33:04;;;;;;;2.28;2.08;;;27.00;50.90;;;;;;5031542;28;20860;-73
2022/08/11 08:35:31;;;;;;;1.95;1.75;;;27.00;50.80;;;;;;5030768;28;20501;-77
2022/08/11 08:37:58;;;;;;;1.77;1.50;;;27.00;50.70;;;;;;5028901;28;20120;-77
2022/08/11 08:40:25;;;;;;;1.67;1.58;;;27.00;50.80;;;;;;5040553;28;20056;-74
2022/08/11 08:42:57;;;;;;;3.22;1.50;;;27.10;50.70;;;;;;5051356;28;20045;-74
2022/08/11 08:45:26;;;;;;;1.05;0.98;;;27.00;50.80;;;;;;5052186;28;20446;-73
2022/08/11 08:47:58;;;;;;;2.42;1.80;;;27.00;50.60;;;;;;5055143;28;20359;-75
2022/08/11 08:51:32;;;;;;;7.07;3.30;;;27.20;53.50;;;;;;5055059;28;20045;-75
2022/08/11 08:53:16;;;;;;;29.70;7.63;;;27.10;54.70;;;;;;5055003;28;20061;-75
2022/08/11 08:55:45;;;;;;;6.93;3.58;;;27.30;55.30;;;;;;5054936;28;20517;-75
2022/08/11 08:58:12;;;;;;;12.32;4.38;;;27.30;53.20;;;;;;5054586;28;20033;-76
2022/08/11 09:00:43;;;;;;;3.72;3.03;;;27.40;53.30;;;;;;5053484;28;20033;-77
2022/08/11 09:03:10;;;;;;;5.38;3.63;;;27.60;53.60;;;;;;5054518;28;20399;-74
2022/08/11 09:05:36;;;;;;;7.78;3.70;;;27.50;52.50;;;;;;5053000;28;20037;-73
2022/08/11 09:08:03;;;;;;;4.68;3.15;;;27.50;53.60;;;;;;5058905;28;20493;-74
2022/08/11 09:10:30;;;;;;;5.45;2.30;;;27.30;51.90;;;;;;5073829;28;20494;-76
2022/08/11 09:12:58;;;;;;;2.30;1.33;;;27.30;51.60;;;;;;5058367;28;20048;-74
2022/08/11 09:15:24;;;;;;;7.18;1.80;;;27.30;51.40;;;;;;5054384;28;20445;-73
2022/08/11 09:18:02;;;;;;;2.92;2.72;;;27.40;51.50;;;;;;5054478;28;20044;-75
2022/08/11 09:20:33;;;;;;;1.83;1.73;;;27.40;53.50;;;;;;5052842;28;20063;-74
2022/08/11 09:28:46;;;;;;;4.38;2.28;;;27.50;52.00;;;;;;5054544;28;20029;-76
2022/08/11 09:31:14;;;;;;;2.05;1.70;;;27.40;51.20;;;;;;5054390;28;20072;-72
2022/08/11 09:33:41;;;;;;;1.20;1.13;;;27.50;51.60;;;;;;5053245;28;20044;-74
2022/08/11 09:41:39;;;;;;;2.28;1.75;;;27.50;50.80;;;;;;5052561;28;20053;-75
2022/08/11 09:46:56;;;;;;;3.15;1.70;;;27.60;54.70;;;;;;5054213;28;20041;-72
2022/08/11 09:49:23;;;;;;;2.67;2.10;;;27.80;58.40;;;;;;5053859;28;20385;-75
2022/08/11 09:51:49;;;;;;;4.05;2.13;;;28.00;58.50;;;;;;5054161;28;20107;-74
2022/08/11 09:54:17;;;;;;;1.23;1.23;;;28.00;54.80;;;;;;5053827;28;20033;-74
2022/08/11 09:59:29;;;;;;;1.13;1.13;;;28.10;55.10;;;;;;5053733;28;20052;-72
2022/08/11 10:02:01;;;;;;;1.92;1.70;;;28.20;55.70;;;;;;5053727;28;20041;-75
2022/08/11 10:04:48;;;;;;;2.03;1.80;;;28.10;54.70;;;;;;5055248;28;20082;-74
2022/08/11 10:07:18;;;;;;;3.67;1.80;;;28.10;52.30;;;;;;5050715;28;20102;-75
2022/08/11 10:10:01;;;;;;;2.00;1.90;;;28.30;52.00;;;;;;5073790;28;20060;-73
2022/08/11 10:12:36;;;;;;;0.80;0.80;;;28.10;51.60;;;;;;5056386;28;20422;-77
2022/08/11 10:21:09;;;;;;;1.25;1.15;;;28.30;52.00;;;;;;5052552;28;20029;-75
2022/08/11 10:34:46;;;;;;;2.65;2.40;;;28.60;57.20;;;;;;5053565;28;20029;-75
2022/08/11 10:37:14;;;;;;;2.10;1.95;;;28.70;54.10;;;;;;5053088;28;20033;-74
2022/08/11 10:39:40;;;;;;;1.90;1.80;;;28.60;50.20;;;;;;5053016;28;20060;-73
2022/08/11 10:44:53;;;;;;;2.10;1.92;;;28.60;50.30;;;;;;5053247;28;20086;-74
2022/08/11 10:47:37;;;;;;;1.30;1.20;;;28.40;50.30;;;;;;5053022;28;20041;-74
2022/08/11 10:58:46;;;;;;;5.05;2.45;;;28.30;50.60;;;;;;5052449;28;20338;-73
2022/08/11 11:01:23;;;;;;;1.98;1.80;;;28.40;50.90;;;;;;5052804;28;20565;-72
2022/08/11 11:03:53;;;;;;;1.45;1.10;;;28.40;51.10;;;;;;5065009;28;20043;-72
2022/08/11 11:06:30;;;;;;;3.15;1.70;;;28.40;51.10;;;;;;5052630;28;20433;-74
2022/08/11 11:09:07;;;;;;;2.45;1.88;;;28.20;51.30;;;;;;5054494;28;20033;-67
2022/08/11 11:19:56;;;;;;;1.75;1.65;;;28.10;51.60;;;;;;5052532;28;20036;-73
2022/08/11 11:22:38;;;;;;;2.05;1.73;;;28.20;51.80;;;;;;5052198;28;20445;-71
2022/08/11 11:25:22;;;;;;;2.57;1.70;;;28.20;52.00;;;;;;5052083;28;20021;-70
2022/08/11 11:28:17;;;;;;;1.60;1.50;;;28.10;51.90;;;;;;5052003;28;20041;-71
2022/08/11 11:31:20;;;;;;;1.35;1.25;;;28.10;51.60;;;;;;5051992;28;20040;-74
2022/08/11 11:34:03;;;;;;;1.83;1.73;;;28.10;51.70;;;;;;5030948;28;20037;-72
2022/08/11 11:36:50;;;;;;;0.90;0.90;;;28.20;51.40;;;;;;5032375;28;20033;-72
2022/08/11 11:39:25;;;;;;;2.30;2.15;;;28.10;51.40;;;;;;5054936;28;20063;-74
2022/08/11 11:41:54;;;;;;;2.10;1.90;;;28.10;50.90;;;;;;5058920;28;20053;-74
2022/08/11 11:44:22;;;;;;;1.83;1.65;;;28.10;50.90;;;;;;5059278;28;20368;-73
2022/08/11 11:46:50;;;;;;;2.10;1.90;;;28.10;51.10;;;;;;5069519;28;20052;-73
2022/08/11 11:49:19;;;;;;;2.20;2.00;;;28.10;51.00;;;;;;5059761;28;20041;-74
2022/08/11 11:51:47;;;;;;;1.83;1.73;;;28.10;50.80;;;;;;5033528;28;20103;-75
2022/08/11 11:54:20;;;;;;;1.70;1.60;;;28.10;50.40;;;;;;5048287;28;20040;-74
2022/08/11 11:56:46;;;;;;;2.47;2.03;;;28.30;50.70;;;;;;5068987;28;20510;-72
2022/08/11 12:01:58;;;;;;;1.83;1.58;;;28.10;51.10;;;;;;5046879;28;20091;-70
2022/08/11 12:04:26;;;;;;;2.33;1.80;;;28.20;51.20;;;;;;5013261;28;20041;-72
2022/08/11 12:08:08;;;;;;;1.95;1.50;;;28.00;51.40;;;;;;5047605;28;20484;-74
2022/08/11 12:09:40;;;;;;;1.50;1.40;;;28.00;51.40;;;;;;5040927;28;20076;-73
2022/08/11 12:14:53;;;;;;;3.53;1.88;;;28.10;51.90;;;;;;5061778;28;20047;-73
2022/08/11 12:17:19;;;;;;;1.88;1.77;;;28.00;51.80;;;;;;5056469;28;20112;-73
2022/08/11 12:19:46;;;;;;;1.92;1.75;;;27.90;51.20;;;;;;5051500;28;20041;-72
2022/08/11 12:27:43;;;;;;;1.65;1.55;;;28.00;51.60;;;;;;5055013;28;20504;-72
2022/08/11 12:30:10;;;;;;;1.60;1.50;;;28.00;51.50;;;;;;5057982;28;20425;-72
2022/08/11 12:32:38;;;;;;;1.50;1.40;;;28.00;51.40;;;;;;5075023;28;20032;-72
2022/08/11 12:35:06;;;;;;;1.52;1.40;;;28.00;51.20;;;;;;5075230;28;20024;-73
2022/08/11 12:37:40;;;;;;;1.67;1.58;;;28.00;51.20;;;;;;5072236;28;20082;-72
2022/08/11 12:45:47;;;;;;;1.63;1.48;;;28.00;50.80;;;;;;5055157;28;20033;-72
2022/08/11 12:53:59;;;;;;;1.80;1.63;;;27.90;50.30;;;;;;5074462;28;20029;-72
2022/08/11 13:05:01;;;;;;;1.75;1.65;;;27.80;50.80;;;;;;5053110;28;20112;-72
2022/08/11 13:07:28;;;;;;;1.60;1.20;;;27.90;50.90;;;;;;5054337;28;20469;-72
2022/08/11 13:09:56;;;;;;;2.78;1.88;;;27.70;51.00;;;;;;5054179;28;20041;-72
2022/08/11 13:15:10;;;;;;;1.33;1.23;;;27.80;50.80;;;;;;5058122;28;20064;-72
2022/08/11 13:17:37;;;;;;;1.73;1.63;;;27.90;50.90;;;;;;5073902;28;20522;-72
2022/08/11 13:20:05;;;;;;;2.08;1.40;;;27.80;50.80;;;;;;5073919;28;20063;-72
2022/08/11 13:22:31;;;;;;;1.73;1.58;;;27.90;50.90;;;;;;5074075;28;20542;-72
2022/08/11 13:24:58;;;;;;;2.38;1.70;;;27.90;51.00;;;;;;5074255;28;20064;-72
2022/08/11 13:27:25;;;;;;;1.67;1.58;;;27.80;51.00;;;;;;5074128;28;20040;-72
2022/08/11 13:31:10;;;;;;;1.27;1.25;;;27.80;50.90;;;;;;5073853;28;20063;-72
2022/08/11 13:32:40;;;;;;;2.00;1.83;;;27.80;51.10;;;;;;5053807;28;20123;-72
2022/08/11 13:35:08;;;;;;;1.40;1.30;;;27.80;50.70;;;;;;5053689;28;20056;-72
2022/08/11 13:37:35;;;;;;;2.28;1.40;;;27.70;50.30;;;;;;5054126;28;20033;-72
2022/08/11 13:40:01;;;;;;;3.00;1.50;;;27.70;50.90;;;;;;5053103;28;20037;-71
2022/08/11 13:42:27;;;;;;;3.78;1.52;;;27.80;51.20;;;;;;5056495;28;20063;-76
2022/08/11 13:44:55;;;;;;;2.20;1.40;;;27.70;50.00;;;;;;5073972;28;20099;-71
2022/08/11 13:47:23;;;;;;;1.38;1.30;;;27.80;51.30;;;;;;5063649;28;20040;-70
2022/08/11 13:49:50;;;;;;;1.40;1.30;;;27.80;51.50;;;;;;5062948;28;20020;-73
2022/08/11 13:52:17;;;;;;;1.88;1.70;;;27.90;51.70;;;;;;5073567;28;20031;-70
2022/08/11 13:54:46;;;;;;;1.67;1.58;;;27.60;51.70;;;;;;5068750;28;20055;-69
2022/08/11 13:57:18;;;;;;;1.38;1.27;;;27.60;51.80;;;;;;5061077;28;20036;-72
2022/08/11 13:59:46;;;;;;;3.15;1.30;;;27.60;51.70;;;;;;5065377;28;20031;-70
2022/08/11 14:02:15;;;;;;;1.38;1.27;;;27.60;52.00;;;;;;5073166;28;20067;-69
2022/08/11 14:04:48;;;;;;;1.20;1.20;;;27.70;52.10;;;;;;5072415;28;20033;-71
2022/08/11 14:07:21;;;;;;;1.40;1.30;;;27.60;52.20;;;;;;5072081;28;20392;-69
2022/08/11 14:09:51;;;;;;;1.60;1.50;;;27.60;52.20;;;;;;5061681;28;20033;-70
2022/08/11 14:15:18;;;;;;;;;;;27.70;52.30;;;;;;5053586;28;20029;-69
2022/08/11 14:18:00;;;;;;;1.40;1.30;;;27.50;52.60;;;;;;5052879;28;19999;-67
2022/08/11 14:22:05;;;;;;;1.33;1.23;;;27.50;52.60;;;;;;5052836;28;20037;-69
2022/08/11 14:23:16;;;;;;;1.77;1.30;;;27.60;52.80;;;;;;5053057;28;20037;-70
2022/08/11 14:26:22;;;;;;;1.58;1.33;;;27.40;52.80;;;;;;5068411;28;20367;-71
2022/08/11 14:28:32;;;;;;;3.92;1.13;;;27.50;52.90;;;;;;5052878;28;20481;-70
2022/08/11 14:30:59;;;;;;;1.23;1.15;;;27.60;53.00;;;;;;5051429;28;20481;-70
2022/08/11 14:33:25;;;;;;;1.60;1.50;;;27.50;52.70;;;;;;5051561;28;20025;-75
2022/08/11 14:35:52;;;;;;;1.35;1.25;;;27.40;52.80;;;;;;5052681;28;20033;-73
2022/08/11 14:38:19;;;;;;;1.25;1.20;;;27.50;50.90;;;;;;5052919;28;20033;-73
2022/08/11 14:49:03;;;;;;;2.13;1.40;;;27.50;52.80;;;;;;5052635;28;20037;-72
2022/08/11 14:51:29;;;;;;;1.25;1.20;;;27.70;52.80;;;;;;5052131;28;20345;-72
2022/08/11 14:56:34;;;;;;;1.17;1.10;;;27.50;53.00;;;;;;5061024;28;20540;-72
2022/08/11 14:56:43;;;;;;;2.70;1.30;;;27.50;52.20;;;;;;5072178;28;20035;-72
2022/08/11 14:59:11;;;;;;;0.88;0.88;;;27.50;50.90;;;;;;5072238;28;20032;-71
2022/08/11 15:04:24;;;;;;;1.58;1.48;;;27.60;52.50;;;;;;5052774;28;20029;-72
2022/08/11 15:06:50;;;;;;;1.17;1.17;;;27.60;52.40;;;;;;5052231;28;20429;-73
2022/08/11 15:09:17;;;;;;;1.23;1.13;;;27.60;52.60;;;;;;5052523;28;20067;-73
2022/08/11 15:17:14;;;;;;;0.88;0.88;;;27.70;53.10;;;;;;5052198;28;20021;-73
2022/08/11 15:25:14;;;;;;;2.00;1.90;;;27.70;55.00;;;;;;5045015;28;20056;-73
2022/08/11 15:38:55;;;;;;;1.20;1.10;;;28.10;51.70;;;;;;5068646;28;20043;-73
2022/08/11 15:47:02;;;;;;;1.33;1.23;;;28.40;56.20;;;;;;5029210;28;20044;-72
2022/08/11 15:49:33;;;;;;;1.45;1.30;;;28.20;54.90;;;;;;5048165;28;20024;-71
2022/08/11 15:52:07;;;;;;;1.52;1.40;;;28.30;51.80;;;;;;5059128;28;20183;-72
2022/08/11 15:54:37;;;;;;;1.52;1.40;;;28.20;53.90;;;;;;5058818;28;20040;-73
2022/08/11 15:57:04;;;;;;;2.08;1.60;;;28.30;53.90;;;;;;5049248;28;20064;-74
2022/08/11 16:05:13;;;;;;;1.33;1.23;;;28.20;53.80;;;;;;5048727;28;20685;-72
2022/08/11 16:07:42;;;;;;;1.50;1.40;;;28.40;54.00;;;;;;5048952;28;20039;-71
2022/08/11 16:10:18;;;;;;;14.73;6.22;;;28.30;54.20;;;;;;5048956;28;20120;-69
2022/08/11 16:18:24;;;;;;;793.97;429.73;;;28.50;51.60;;;;;;5070027;28;20346;-74
2022/08/11 16:20:55;;;;;;;329.42;201.73;;;28.70;48.80;;;;;;5050762;28;20428;-71
2022/08/11 16:23:25;;;;;;;261.58;166.73;;;28.60;49.10;;;;;;5050894;28;20497;-75
2022/08/11 16:25:54;;;;;;;197.20;133.57;;;28.60;49.40;;;;;;5051187;28;20466;-72
2022/08/11 16:28:21;;;;;;;211.30;129.77;;;28.70;50.00;;;;;;5050659;28;20086;-74
2022/08/11 16:30:48;;;;;;;144.23;99.60;;;28.50;50.40;;;;;;5050953;28;20094;-74
2022/08/11 16:33:16;;;;;;;169.45;100.45;;;28.50;50.60;;;;;;5050580;28;20063;-72
2022/08/11 16:38:35;;;;;;;99.93;60.95;;;28.60;50.80;;;;;;5050995;28;20033;-71
2022/08/11 16:41:09;;;;;;;;;;;28.60;51.10;;;;;;5051442;28;20653;-71
2022/08/11 16:49:32;;;;;;;44.72;29.02;;;28.60;52.20;;;;;;5061630;28;20044;-72
2022/08/11 16:52:02;;;;;;;40.08;25.23;;;28.50;53.50;;;;;;5012160;28;20121;-70
2022/08/11 16:54:31;;;;;;;33.78;19.10;;;28.60;53.20;;;;;;5008767;28;20048;-70
2022/08/11 16:59:13;;;;;;;33.95;19.70;;;28.50;52.90;;;;;;5008636;28;20049;-70
2022/08/11 16:59:52;;;;;;;29.02;18.15;;;28.40;52.00;;;;;;5008287;28;20040;-69
2022/08/11 17:13:51;;;;;;;16.88;9.88;;;28.40;52.30;;;;;;5031729;28;20045;-70
2022/08/11 17:16:31;;;;;;;11.45;7.60;;;28.50;52.30;;;;;;5032077;28;20132;-72
2022/08/11 17:19:02;;;;;;;13.55;9.52;;;28.50;52.20;;;;;;5031707;28;20045;-71
2022/08/11 17:23:45;;;;;;;15.57;10.30;;;28.50;52.20;;;;;;5017782;28;20502;-72
2022/08/11 17:24:26;;;;;;;30.48;13.50;;;28.60;52.50;;;;;;5011877;28;20100;-72
2022/08/11 17:26:57;;;;;;;19.88;10.75;;;28.50;52.80;;;;;;5012172;28;20491;-71
2022/08/11 17:29:43;;;;;;;8.55;4.97;;;28.50;51.70;;;;;;5038417;28;20056;-72
2022/08/11 17:37:50;;;;;;;4.50;2.65;;;28.40;47.20;;;;;;5053822;28;20032;-74
2022/08/11 17:40:23;;;;;;;5.35;3.35;;;28.40;46.50;;;;;;5056318;28;21362;-72
2022/08/11 17:48:41;;;;;;;2.05;1.90;;;28.20;45.40;;;;;;5070939;28;20480;-72
2022/08/11 17:59:50;;;;;;;1.95;1.75;;;28.20;44.70;;;;;;5073561;28;20504;-73
2022/08/11 17:59:51;;;;;;;2.03;1.77;;;28.10;45.30;;;;;;5053431;28;20033;-73
2022/08/11 18:05:14;;;;;;;2.78;2.05;;;28.10;46.10;;;;;;5051195;28;20124;-71
